createdAt,value
2022-10-18T00:01:04.013Z,100833.53
2022-10-18T00:03:32.828Z,100835.34
2022-10-18T00:06:01.312Z,100831.00
2022-10-18T00:08:31.085Z,100837.22
2022-10-18T00:10:59.239Z,100830.38
2022-10-18T00:13:27.421Z,100833.13
2022-10-18T00:15:57.622Z,100833.13
2022-10-18T00:18:25.923Z,100835.78
2022-10-18T00:21:01.952Z,100844.47
2022-10-18T00:23:32.866Z,100854.94
2022-10-18T00:26:03.503Z,100850.66
2022-10-18T00:28:32.167Z,100856.72
2022-10-18T00:31:10.625Z,100855.84
2022-10-18T00:33:38.820Z,100852.34
2022-10-18T00:36:07.420Z,100857.53
2022-10-18T00:38:37.192Z,100859.28
2022-10-18T00:41:06.713Z,100861.94
2022-10-18T00:43:35.054Z,100854.19
2022-10-18T00:46:03.092Z,100869.88
2022-10-18T00:48:31.181Z,100869.91
2022-10-18T00:50:59.252Z,100867.28
2022-10-18T00:53:27.421Z,100859.47
2022-10-18T00:55:58.392Z,100856.84
2022-10-18T00:58:26.703Z,100864.69
2022-10-18T01:00:54.732Z,100867.34
2022-10-18T01:03:22.950Z,100881.25
2022-10-18T01:05:51.114Z,100872.53
2022-10-18T01:08:37.146Z,100874.25
2022-10-18T01:11:18.712Z,100881.19
2022-10-18T01:14:01.072Z,100885.50
2022-10-18T01:16:34.394Z,100882.03
2022-10-18T01:19:08.282Z,100880.34
2022-10-18T01:21:43.482Z,100882.94
2022-10-18T01:24:46.935Z,100891.66
2022-10-18T01:27:31.787Z,100896.91
2022-10-18T01:30:20.672Z,100886.47
2022-10-18T01:32:52.170Z,100899.50
2022-10-18T01:35:23.553Z,100892.53
2022-10-18T01:37:53.722Z,100896.88
2022-10-18T01:40:24.773Z,100896.88
2022-10-18T01:42:53.550Z,100886.44
2022-10-18T01:45:24.462Z,100892.53
2022-10-18T01:47:53.575Z,100900.31
2022-10-18T01:50:30.172Z,100896.84
2022-10-18T01:52:59.062Z,100901.22
2022-10-18T01:55:33.063Z,100896.91
2022-10-18T01:58:09.521Z,100895.13
2022-10-18T02:00:43.049Z,100901.25
2022-10-18T02:03:21.055Z,100906.44
2022-10-18T02:05:55.862Z,100916.88
2022-10-18T02:08:31.433Z,100912.53
2022-10-18T02:11:03.522Z,100914.25
2022-10-18T02:13:37.570Z,100908.16
2022-10-18T02:16:10.970Z,100915.97
2022-10-18T02:18:43.293Z,100912.50
2022-10-18T02:21:14.815Z,100911.66
2022-10-18T02:23:45.102Z,100920.34
2022-10-18T02:26:13.436Z,100916.03
2022-10-18T02:28:42.092Z,100913.41
2022-10-18T02:31:20.320Z,100909.91
2022-10-18T02:33:54.351Z,100911.63
2022-10-18T02:36:27.970Z,100921.13
2022-10-18T02:39:01.525Z,100913.28
2022-10-18T02:41:31.702Z,100905.44
2022-10-18T02:43:59.936Z,100908.94
2022-10-18T02:46:29.630Z,100916.75
2022-10-18T02:48:57.674Z,100916.81
2022-10-18T02:51:26.271Z,100922.91
2022-10-18T02:53:54.323Z,100921.13
2022-10-18T02:56:22.452Z,100921.13
2022-10-18T02:58:50.520Z,100916.78
2022-10-18T03:01:18.774Z,100916.81
2022-10-18T03:03:48.180Z,100912.47
2022-10-18T03:06:16.244Z,100902.94
2022-10-18T03:08:44.362Z,100909.91
2022-10-18T03:11:12.453Z,100912.53
2022-10-18T03:13:40.452Z,100926.41
2022-10-18T03:16:08.665Z,100930.69
2022-10-18T03:18:36.712Z,100934.97
2022-10-18T03:21:07.721Z,100929.69
2022-10-18T03:23:36.635Z,100933.16
2022-10-18T03:26:05.245Z,100932.31
2022-10-18T03:28:33.492Z,100943.56
2022-10-18T03:31:02.545Z,100942.72
2022-10-18T03:33:31.541Z,100944.47
2022-10-18T03:35:59.600Z,100938.41
2022-10-18T03:38:29.063Z,100942.78
2022-10-18T03:40:57.214Z,100943.72
2022-10-18T03:43:25.412Z,100945.44
2022-10-18T03:45:53.442Z,100943.72
2022-10-18T03:48:21.953Z,100950.69
2022-10-18T03:50:50.051Z,100943.75
2022-10-18T03:53:18.149Z,100949.84
2022-10-18T03:55:52.005Z,100949.84
2022-10-18T03:58:20.222Z,100956.75
2022-10-18T04:00:51.072Z,100959.31
2022-10-18T04:03:19.292Z,100961.00
2022-10-18T04:05:48.043Z,100962.66
2022-10-18T04:08:17.203Z,100966.94
2022-10-18T04:10:45.612Z,100967.84
2022-10-18T04:13:15.071Z,100959.22
2022-10-18T04:15:43.932Z,100965.25
2022-10-18T04:18:12.093Z,100968.72
2022-10-18T04:20:40.159Z,100962.63
2022-10-18T04:23:08.313Z,100969.56
2022-10-18T04:25:36.346Z,100966.09
2022-10-18T04:28:05.045Z,100970.38
2022-10-18T04:30:34.471Z,100968.59
2022-10-18T04:33:02.562Z,100968.59
2022-10-18T04:35:30.642Z,100978.97
2022-10-18T04:37:58.782Z,100975.41
2022-10-18T04:40:26.902Z,100979.69
2022-10-18T04:42:54.991Z,100984.88
2022-10-18T04:45:23.020Z,100985.72
2022-10-18T04:47:52.564Z,100986.66
2022-10-18T04:50:20.993Z,100985.91
2022-10-18T04:55:18.205Z,100991.22
2022-10-18T04:57:46.303Z,100999.88
2022-10-18T05:00:15.441Z,100997.28
2022-10-18T05:02:43.462Z,101003.28
2022-10-18T05:05:14.161Z,100997.06
2022-10-18T05:07:42.903Z,100994.41
2022-10-18T05:10:11.106Z,100993.53
2022-10-18T05:12:39.508Z,101000.47
2022-10-18T05:15:08.431Z,100999.59
2022-10-18T05:17:37.054Z,101005.63
2022-10-18T05:20:05.789Z,100998.63
2022-10-18T05:22:35.398Z,101002.00
2022-10-18T05:25:03.843Z,100995.91
2022-10-18T05:27:32.325Z,100990.78
2022-10-18T05:30:04.523Z,100998.63
2022-10-18T05:32:34.216Z,101000.41
2022-10-18T05:35:02.563Z,100997.81
2022-10-18T05:37:30.623Z,101007.31
2022-10-18T05:39:59.950Z,101010.66
2022-10-18T05:42:28.160Z,101008.91
2022-10-18T05:44:56.212Z,101012.44
2022-10-18T05:47:24.379Z,101005.63
2022-10-18T05:49:52.465Z,101010.88
2022-10-18T05:52:20.582Z,101022.09
2022-10-18T05:54:48.640Z,101024.56
2022-10-18T05:57:18.164Z,101019.31
2022-10-18T05:59:46.324Z,101015.91
2022-10-18T06:02:14.577Z,101014.22
2022-10-18T06:04:42.724Z,101024.63
2022-10-18T06:07:11.291Z,101022.78
2022-10-18T06:09:39.811Z,101031.38
2022-10-18T06:12:09.046Z,101021.78
2022-10-18T06:14:38.734Z,101019.13
2022-10-18T06:17:06.824Z,101023.47
2022-10-18T06:19:34.953Z,101020.91
2022-10-18T06:22:03.022Z,101026.13
2022-10-18T06:24:31.034Z,101017.50
2022-10-18T06:26:59.345Z,101022.78
2022-10-18T06:29:27.503Z,101019.31
2022-10-18T06:31:56.836Z,101013.13
2022-10-18T06:34:24.890Z,101006.09
2022-10-18T06:36:56.357Z,101012.13
2022-10-18T06:39:26.511Z,101011.25
2022-10-18T06:41:54.834Z,101019.91
2022-10-18T06:44:23.302Z,101015.47
2022-10-18T06:46:53.466Z,101027.47
2022-10-18T06:49:23.445Z,101028.28
2022-10-18T06:51:51.561Z,101020.59
2022-10-18T06:54:19.774Z,101031.97
2022-10-18T06:56:47.881Z,101030.31
2022-10-18T06:59:16.351Z,101033.69
2022-10-18T07:01:44.710Z,101034.44
2022-10-18T07:04:12.972Z,101049.06
2022-10-18T07:06:42.781Z,101060.25
2022-10-18T07:09:11.133Z,101052.47
2022-10-18T07:11:39.214Z,101060.34
2022-10-18T07:14:07.515Z,101048.38
2022-10-18T07:16:36.833Z,101046.81
2022-10-18T07:19:05.205Z,101055.56
2022-10-18T07:21:33.363Z,101048.59
2022-10-18T07:24:02.749Z,101058.16
2022-10-18T07:26:33.186Z,101059.97
2022-10-18T07:29:03.509Z,101053.97
2022-10-18T07:31:32.315Z,101055.81
2022-10-18T07:34:00.706Z,101056.75
2022-10-18T07:36:28.819Z,101071.56
2022-10-18T07:38:57.352Z,101064.69
2022-10-18T07:41:27.213Z,101072.59
2022-10-18T07:43:55.300Z,101078.72
2022-10-18T07:46:24.093Z,101078.84
2022-10-18T07:48:53.133Z,101071.94
2022-10-18T07:51:22.142Z,101080.66
2022-10-18T07:53:50.264Z,101079.84
2022-10-18T07:56:20.893Z,101086.88
2022-10-18T07:58:52.533Z,101099.06
2022-10-18T08:01:21.696Z,101094.78
2022-10-18T08:03:50.193Z,101091.34
2022-10-18T08:06:19.678Z,101088.75
2022-10-18T08:08:48.307Z,101093.13
2022-10-18T08:11:19.413Z,101089.72
2022-10-18T08:13:48.042Z,101089.75
2022-10-18T08:16:20.202Z,101096.75
2022-10-18T08:18:48.840Z,101102.84
2022-10-18T08:21:18.103Z,101107.22
2022-10-18T08:23:46.693Z,101097.66
2022-10-18T08:26:17.533Z,101095.09
2022-10-18T08:28:54.000Z,101096.00
2022-10-18T08:31:27.962Z,101112.53
2022-10-18T08:33:56.789Z,101120.41
2022-10-18T08:36:25.371Z,101116.06
2022-10-18T08:38:53.702Z,101117.81
2022-10-18T08:41:44.140Z,101133.47
2022-10-18T08:44:19.144Z,101137.00
2022-10-18T08:46:51.196Z,101137.84
2022-10-18T08:49:26.751Z,101150.88
2022-10-18T08:51:55.832Z,101148.22
2022-10-18T08:54:31.822Z,101143.88
2022-10-18T08:57:02.692Z,101141.19
2022-10-18T08:59:39.022Z,101155.91
2022-10-18T09:02:20.221Z,101154.94
2022-10-18T09:04:55.339Z,101150.50
2022-10-18T09:07:40.702Z,101152.19
2022-10-18T09:10:22.324Z,101160.84
2022-10-18T09:13:08.932Z,101156.41
2022-10-18T09:15:44.560Z,101165.81
2022-10-18T09:18:27.908Z,101162.16
2022-10-18T09:20:59.061Z,101162.94
2022-10-18T09:23:42.755Z,101168.00
2022-10-18T09:26:16.124Z,101165.19
2022-10-18T09:28:53.958Z,101159.69
2022-10-18T09:31:27.506Z,101171.75
2022-10-18T09:34:02.040Z,101171.63
2022-10-18T09:36:35.714Z,101177.47
2022-10-18T09:39:10.204Z,101170.22
2022-10-18T09:41:44.643Z,101165.72
2022-10-18T09:44:18.266Z,101172.56
2022-10-18T09:46:50.830Z,101168.88
2022-10-18T09:49:24.375Z,101177.41
2022-10-18T09:51:54.712Z,101179.84
2022-10-18T09:54:29.198Z,101179.50
2022-10-18T09:57:05.818Z,101174.69
2022-10-18T09:59:38.416Z,101174.50
2022-10-18T10:02:07.286Z,101174.38
2022-10-18T10:04:36.792Z,101186.53
2022-10-18T10:07:09.594Z,101188.19
2022-10-18T10:09:45.161Z,101183.63
2022-10-18T10:12:27.812Z,101170.50
2022-10-18T10:14:56.371Z,101177.38
2022-10-18T10:17:27.552Z,101178.00
2022-10-18T10:20:03.783Z,101175.19
2022-10-18T10:22:36.422Z,101187.09
2022-10-18T10:25:05.580Z,101194.81
2022-10-18T10:27:41.132Z,101188.59
2022-10-18T10:30:24.907Z,101182.00
2022-10-18T10:32:54.677Z,101176.38
2022-10-18T10:35:35.532Z,101175.13
2022-10-18T10:38:24.033Z,101179.19
2022-10-18T10:40:52.593Z,101180.50
2022-10-18T10:43:37.195Z,101179.06
2022-10-18T10:46:09.771Z,101177.34
2022-10-18T10:48:47.684Z,101168.97
2022-10-18T10:51:20.078Z,101172.38
2022-10-18T10:53:52.481Z,101173.69
2022-10-18T10:56:26.688Z,101170.00
2022-10-18T10:58:56.600Z,101160.63
2022-10-18T11:01:33.302Z,101156.19
2022-10-18T11:04:04.891Z,101161.00
2022-10-18T11:06:46.112Z,101156.34
2022-10-18T11:09:27.942Z,101156.88
2022-10-18T11:12:05.323Z,101167.88
2022-10-18T11:14:38.024Z,101155.94
2022-10-18T11:17:18.871Z,101155.00
2022-10-18T11:20:03.303Z,101148.16
2022-10-18T11:22:37.383Z,101145.47
2022-10-18T11:25:06.651Z,101152.84
2022-10-18T11:27:42.134Z,101155.41
2022-10-18T11:30:30.644Z,101147.75
2022-10-18T11:33:07.791Z,101145.78
2022-10-18T11:35:45.573Z,101144.72
2022-10-18T11:38:27.303Z,101139.25
2022-10-18T11:41:07.750Z,101136.78
2022-10-18T11:44:01.135Z,101131.00
2022-10-18T11:46:45.302Z,101129.19
2022-10-18T11:49:28.623Z,101139.53
2022-10-18T11:52:09.353Z,101146.84
2022-10-18T11:55:04.083Z,101139.00
2022-10-18T11:57:44.432Z,101132.09
2022-10-18T12:00:29.924Z,101130.88
2022-10-18T12:03:13.264Z,101133.38
2022-10-18T12:05:44.332Z,101131.91
2022-10-18T12:08:16.313Z,101129.44
2022-10-18T12:11:06.886Z,101123.16
2022-10-18T12:13:41.595Z,101114.59
2022-10-18T12:16:11.029Z,101124.78
2022-10-18T12:18:50.883Z,101109.75
2022-10-18T12:21:25.462Z,101110.16
2022-10-18T12:23:57.901Z,101108.63
2022-10-18T12:26:29.951Z,101100.06
2022-10-18T12:29:12.127Z,101110.97
2022-10-18T12:31:44.582Z,101103.16
2022-10-18T12:34:27.473Z,101096.69
2022-10-18T12:37:10.012Z,101103.47
2022-10-18T12:40:08.637Z,101104.16
2022-10-18T12:42:41.714Z,101099.00
2022-10-18T12:45:24.132Z,101081.84
2022-10-18T12:47:52.852Z,101079.84
2022-10-18T12:50:31.114Z,101091.28
2022-10-18T12:53:19.162Z,101076.47
2022-10-18T12:55:49.343Z,101068.63
2022-10-18T12:58:28.244Z,101065.38
2022-10-18T13:00:58.853Z,101061.84
2022-10-18T13:03:53.571Z,101055.69
2022-10-18T13:06:24.299Z,101063.97
2022-10-18T13:09:17.302Z,101062.84
2022-10-18T13:11:45.924Z,101062.59
2022-10-18T13:14:35.637Z,101060.72
2022-10-18T13:17:14.701Z,101056.09
2022-10-18T13:20:07.619Z,101060.63
2022-10-18T13:23:02.314Z,101060.66
2022-10-18T13:25:37.307Z,101056.00
2022-10-18T13:28:23.803Z,101050.97
2022-10-18T13:30:58.529Z,101049.50
2022-10-18T13:33:34.216Z,101052.31
2022-10-18T13:36:04.573Z,101055.22
2022-10-18T13:38:43.754Z,101046.56
2022-10-18T13:41:14.631Z,101056.31
2022-10-18T13:44:24.803Z,101055.09
2022-10-18T13:47:14.452Z,101052.38
2022-10-18T13:49:59.574Z,101053.16
2022-10-18T13:52:36.360Z,101056.22
2022-10-18T13:55:26.752Z,101066.13
2022-10-18T13:58:05.004Z,101063.59
2022-10-18T14:00:51.312Z,101057.91
2022-10-18T14:03:58.107Z,101050.59
2022-10-18T14:06:30.200Z,101049.00
2022-10-18T14:09:09.584Z,101054.41
2022-10-18T14:11:51.771Z,101048.16
2022-10-18T14:14:29.873Z,101048.16
2022-10-18T14:17:17.760Z,101046.47
2022-10-18T14:19:53.421Z,101050.88
2022-10-18T14:22:25.831Z,101047.94
2022-10-18T14:24:58.456Z,101037.34
2022-10-18T14:27:28.554Z,101029.53
2022-10-18T14:30:15.054Z,101033.13
2022-10-18T14:32:46.467Z,101034.06
2022-10-18T14:35:37.370Z,101033.22
2022-10-18T14:38:14.483Z,101028.91
2022-10-18T14:40:42.944Z,101029.53
2022-10-18T14:43:13.597Z,101024.22
2022-10-18T14:45:42.892Z,101011.13
2022-10-18T14:48:17.000Z,101007.84
2022-10-18T14:50:50.008Z,101009.66
2022-10-18T14:53:22.120Z,101001.53
2022-10-18T14:55:55.955Z,101003.66
2022-10-18T14:58:24.633Z,101003.03
2022-10-18T15:00:52.843Z,101002.41
2022-10-18T15:03:21.938Z,101000.78
2022-10-18T15:05:56.415Z,101004.72
2022-10-18T15:08:26.012Z,101009.47
2022-10-18T15:10:54.880Z,101012.19
2022-10-18T15:13:25.225Z,101021.16
2022-10-18T15:15:54.402Z,101023.00
2022-10-18T15:18:25.083Z,101020.53
2022-10-18T15:21:23.519Z,101027.78
2022-10-18T15:23:52.531Z,101020.81
2022-10-18T15:26:26.515Z,101019.94
2022-10-18T15:29:00.444Z,101019.88
2022-10-18T15:31:35.795Z,101013.72
2022-10-18T15:34:11.890Z,101009.50
2022-10-18T15:36:41.476Z,101015.00
2022-10-18T15:39:17.173Z,101012.44
2022-10-18T15:41:50.246Z,101014.28
2022-10-18T15:44:25.483Z,101015.50
2022-10-18T15:46:55.923Z,101021.09
2022-10-18T15:49:52.514Z,101016.09
2022-10-18T15:52:43.222Z,101023.97
2022-10-18T15:55:48.084Z,101027.56
2022-10-18T15:58:22.991Z,101028.75
2022-10-18T16:00:53.621Z,101028.19
2022-10-18T16:03:23.961Z,101024.06
2022-10-18T16:05:57.014Z,101026.84
2022-10-18T16:08:30.467Z,101029.69
2022-10-18T16:11:00.172Z,101031.59
2022-10-18T16:13:28.701Z,101035.31
2022-10-18T16:15:57.066Z,101042.56
2022-10-18T16:18:26.297Z,101042.88
2022-10-18T16:20:54.644Z,101029.13
2022-10-18T16:23:28.678Z,101037.56
2022-10-18T16:25:57.004Z,101032.72
2022-10-18T16:28:26.822Z,101045.41
2022-10-18T16:30:57.359Z,101051.91
2022-10-18T16:33:26.232Z,101042.50
2022-10-18T16:35:54.892Z,101040.25
2022-10-18T16:38:32.521Z,101043.19
2022-10-18T16:41:04.125Z,101047.94
2022-10-18T16:43:32.836Z,101045.56
2022-10-18T16:46:01.236Z,101032.53
2022-10-18T16:48:29.702Z,101029.19
2022-10-18T16:50:58.224Z,101027.63
2022-10-18T16:53:28.202Z,101038.31
2022-10-18T16:55:59.514Z,101039.41
2022-10-18T16:58:29.308Z,101033.47
2022-10-18T17:00:58.262Z,101029.31
2022-10-18T17:03:27.302Z,101035.69
2022-10-18T17:05:56.306Z,101039.44
2022-10-18T17:08:26.875Z,101035.34
2022-10-18T17:10:58.374Z,101040.84
2022-10-18T17:13:27.532Z,101034.13
2022-10-18T17:15:55.706Z,101038.84
2022-10-18T17:18:26.402Z,101042.56
2022-10-18T17:20:55.154Z,101038.53
2022-10-18T17:23:23.218Z,101053.69
2022-10-18T17:26:06.908Z,101053.09
2022-10-18T17:28:41.452Z,101061.22
2022-10-18T17:31:09.701Z,101058.78
2022-10-18T17:33:38.215Z,101058.09
2022-10-18T17:36:06.751Z,101053.94
2022-10-18T17:38:35.199Z,101053.34
2022-10-18T17:41:07.628Z,101049.16
2022-10-18T17:43:37.356Z,101045.78
2022-10-18T17:46:07.391Z,101050.25
2022-10-18T17:48:35.542Z,101049.56
2022-10-18T17:51:08.542Z,101048.81
2022-10-18T17:53:36.788Z,101050.69
2022-10-18T17:56:05.222Z,101049.03
2022-10-18T17:58:33.741Z,101054.34
2022-10-18T18:01:12.261Z,101052.75
2022-10-18T18:03:40.602Z,101056.34
2022-10-18T18:06:17.172Z,101059.00
2022-10-18T18:08:45.990Z,101052.00
2022-10-18T18:11:14.511Z,101065.94
2022-10-18T18:13:42.891Z,101072.09
2022-10-18T18:16:14.331Z,101076.47
2022-10-18T18:18:43.175Z,101071.19
2022-10-18T18:21:11.300Z,101069.38
2022-10-18T18:23:39.521Z,101074.56
2022-10-18T18:26:08.077Z,101075.38
2022-10-18T18:28:36.916Z,101073.63
2022-10-18T18:31:08.725Z,101072.75
2022-10-18T18:33:38.815Z,101070.03
2022-10-18T18:36:07.742Z,101059.09
2022-10-18T18:38:37.519Z,101060.31
2022-10-18T18:41:07.421Z,101050.81
2022-10-18T18:43:36.152Z,101044.91
2022-10-18T18:46:04.912Z,101041.16
2022-10-18T18:48:34.409Z,101043.63
2022-10-18T18:51:05.249Z,101049.75
2022-10-18T18:53:33.592Z,101055.03
2022-10-18T18:56:03.836Z,101056.66
2022-10-18T18:58:32.079Z,101058.44
2022-10-18T19:01:00.232Z,101062.75
2022-10-18T19:03:28.312Z,101056.50
2022-10-18T19:06:06.022Z,101062.63
2022-10-18T19:08:36.803Z,101058.22
2022-10-18T19:11:08.946Z,101060.94
2022-10-18T19:13:37.723Z,101057.50
2022-10-18T19:16:25.572Z,101054.03
2022-10-18T19:18:57.890Z,101063.81
2022-10-18T19:21:30.105Z,101061.38
2022-10-18T19:23:58.753Z,101060.66
2022-10-18T19:26:32.000Z,101057.34
2022-10-18T19:29:09.758Z,101056.38
2022-10-18T19:31:39.112Z,101048.28
2022-10-18T19:34:09.680Z,101052.59
2022-10-18T19:36:40.509Z,101048.94
2022-10-18T19:39:13.272Z,101040.00
2022-10-18T19:41:42.264Z,101052.75
2022-10-18T19:44:10.365Z,101050.75
2022-10-18T19:46:38.472Z,101050.63
2022-10-18T19:49:06.517Z,101050.53
2022-10-18T19:51:34.773Z,101054.16
2022-10-18T19:54:04.407Z,101051.63
2022-10-18T19:56:32.651Z,101045.63
2022-10-18T19:59:01.731Z,101052.00
2022-10-18T20:01:30.552Z,101046.09
2022-10-18T20:03:58.967Z,101044.53
2022-10-18T20:06:27.982Z,101035.91
2022-10-18T20:08:56.803Z,101040.25
2022-10-18T20:11:27.601Z,101030.69
2022-10-18T20:13:56.591Z,101031.72
2022-10-18T20:16:28.607Z,101035.38
2022-10-18T20:18:58.697Z,101023.22
2022-10-18T20:21:28.743Z,101034.75
2022-10-18T20:23:57.589Z,101041.88
2022-10-18T20:26:26.972Z,101034.03
2022-10-18T20:28:57.952Z,101041.06
2022-10-18T20:31:28.256Z,101036.72
2022-10-18T20:33:58.075Z,101034.09
2022-10-18T20:36:27.281Z,101036.59
2022-10-18T20:38:56.113Z,101037.31
2022-10-18T20:41:27.839Z,101041.63
2022-10-18T20:43:57.564Z,101033.66
2022-10-18T20:46:26.834Z,101033.63
2022-10-18T20:48:55.682Z,101034.38
2022-10-18T20:51:24.193Z,101019.38
2022-10-18T20:53:53.579Z,101020.25
2022-10-18T20:56:24.001Z,101017.47
2022-10-18T20:58:56.106Z,101017.53
2022-10-18T21:01:26.191Z,101010.59
2022-10-18T21:03:56.272Z,101010.66
2022-10-18T21:06:26.924Z,101011.59
2022-10-18T21:08:56.809Z,101028.34
2022-10-18T21:11:25.713Z,101016.16
2022-10-18T21:13:57.540Z,101015.31
2022-10-18T21:16:26.393Z,101018.06
2022-10-18T21:18:54.911Z,101024.28
2022-10-18T21:21:24.959Z,101020.00
2022-10-18T21:23:53.821Z,101014.81
2022-10-18T21:26:24.424Z,101007.00
2022-10-18T21:28:53.726Z,101019.31
2022-10-18T21:31:24.871Z,101011.50
2022-10-18T21:33:54.573Z,101012.38
2022-10-18T21:36:23.123Z,101019.41
2022-10-18T21:38:51.871Z,101015.00
2022-10-18T21:41:21.824Z,101017.56
2022-10-18T21:43:51.781Z,101001.81
2022-10-18T21:46:22.422Z,100992.25
2022-10-18T21:48:54.262Z,100996.69
2022-10-18T21:51:24.441Z,100987.97
2022-10-18T21:53:54.407Z,100991.53
2022-10-18T21:56:24.831Z,100995.97
2022-10-18T21:58:52.921Z,100995.09
2022-10-18T22:01:23.177Z,100990.75
2022-10-18T22:03:54.623Z,100988.16
2022-10-18T22:06:24.146Z,100980.31
2022-10-18T22:08:54.502Z,100975.94
2022-10-18T22:11:25.281Z,100987.38
2022-10-18T22:13:54.351Z,100990.91
2022-10-18T22:16:23.032Z,100995.41
2022-10-18T22:18:57.924Z,100992.88
2022-10-18T22:21:26.531Z,100982.53
2022-10-18T22:23:56.963Z,100984.47
2022-10-18T22:26:26.851Z,100999.56
2022-10-18T22:28:56.471Z,100997.97
2022-10-18T22:31:26.673Z,100988.53
2022-10-18T22:33:57.600Z,100988.69
2022-10-18T22:36:26.661Z,100991.47
2022-10-18T22:38:54.771Z,100985.44
2022-10-18T22:41:23.091Z,100986.47
2022-10-18T22:43:51.750Z,100981.34
2022-10-18T22:46:20.471Z,100989.31
2022-10-18T22:48:49.021Z,100984.16
2022-10-18T22:51:18.449Z,100992.19
2022-10-18T22:53:47.411Z,100991.41
2022-10-18T22:56:18.161Z,100999.50
2022-10-18T22:58:46.410Z,100994.41
2022-10-18T23:01:16.621Z,101000.69
2022-10-18T23:03:44.944Z,100996.44
2022-10-18T23:06:22.661Z,101004.38
2022-10-18T23:08:51.800Z,101003.63
2022-10-18T23:11:20.003Z,100999.22
2022-10-18T23:13:48.421Z,100994.94
2022-10-18T23:16:17.400Z,100995.88
2022-10-18T23:18:45.528Z,100995.91
2022-10-18T23:21:14.725Z,101006.34
2022-10-18T23:23:44.470Z,101014.13
2022-10-18T23:26:14.561Z,101007.94
2022-10-18T23:28:44.448Z,100986.94
2022-10-18T23:31:14.680Z,100993.03
2022-10-18T23:33:42.941Z,100983.38
2022-10-18T23:36:11.601Z,100978.94
2022-10-18T23:38:40.581Z,100985.78
2022-10-18T23:41:11.751Z,100983.91
2022-10-18T23:43:40.513Z,100976.78
2022-10-18T23:46:09.482Z,100971.41
2022-10-18T23:48:38.040Z,100979.91
2022-10-18T23:51:06.890Z,100976.28
2022-10-18T23:53:35.952Z,100963.88
2022-10-18T23:56:06.120Z,100955.03
2022-10-18T23:58:37.354Z,100956.69
